createdAt,value
2023-03-23T00:01:50.359Z,530.00
2023-03-23T00:05:50.483Z,529.00
2023-03-23T00:09:50.635Z,531.00
2023-03-23T00:13:50.681Z,529.00
2023-03-23T00:17:50.770Z,538.00
2023-03-23T00:21:50.911Z,534.00
2023-03-23T00:25:51.052Z,530.00
2023-03-23T00:29:51.170Z,530.00
2023-03-23T00:33:51.191Z,533.00
2023-03-23T00:37:51.242Z,529.00
2023-03-23T00:41:51.334Z,527.00
2023-03-23T00:45:51.528Z,531.00
2023-03-23T00:49:51.685Z,532.00
2023-03-23T00:53:51.804Z,532.00
2023-03-23T00:57:51.967Z,528.00
2023-03-23T01:01:52.020Z,524.00
2023-03-23T01:05:52.040Z,523.00
2023-03-23T01:09:52.174Z,527.00
2023-03-23T01:13:52.213Z,525.00
2023-03-23T01:17:52.340Z,524.00
2023-03-23T01:21:52.308Z,523.00
2023-03-23T01:25:52.341Z,521.00
2023-03-23T01:29:52.325Z,521.00
2023-03-23T01:33:52.340Z,525.00
2023-03-23T01:37:52.415Z,526.00
2023-03-23T01:41:52.473Z,526.00
2023-03-23T01:45:52.464Z,526.00
2023-03-23T01:49:52.467Z,530.00
2023-03-23T01:53:52.498Z,534.00
2023-03-23T01:57:52.528Z,539.00
2023-03-23T02:01:52.486Z,533.00
2023-03-23T02:05:52.466Z,533.00
2023-03-23T02:09:52.551Z,533.00
2023-03-23T02:13:52.554Z,532.00
2023-03-23T02:17:52.542Z,530.00
2023-03-23T02:21:52.495Z,533.00
2023-03-23T02:25:52.521Z,534.00
2023-03-23T02:29:52.488Z,540.00
2023-03-23T02:33:52.558Z,537.00
2023-03-23T02:37:52.616Z,541.00
2023-03-23T02:41:52.704Z,541.00
2023-03-23T02:45:52.693Z,535.00
2023-03-23T02:49:52.757Z,536.00
2023-03-23T02:53:52.766Z,537.00
2023-03-23T02:57:52.748Z,535.00
2023-03-23T03:01:52.816Z,533.00
2023-03-23T03:05:52.846Z,534.00
2023-03-23T03:09:52.867Z,537.00
2023-03-23T03:13:52.918Z,534.00
2023-03-23T03:17:52.943Z,536.00
2023-03-23T03:21:52.949Z,539.00
2023-03-23T03:25:52.930Z,539.00
2023-03-23T03:29:52.927Z,534.00
2023-03-23T03:33:52.919Z,538.00
2023-03-23T03:37:52.874Z,534.00
2023-03-23T03:41:52.877Z,534.00
2023-03-23T03:45:52.841Z,537.00
2023-03-23T03:49:52.831Z,537.00
2023-03-23T03:53:52.806Z,533.00
2023-03-23T03:57:52.809Z,534.00
2023-03-23T04:01:52.777Z,538.00
2023-03-23T04:05:52.784Z,547.00
2023-03-23T04:09:53.715Z,545.00
2023-03-23T04:13:52.696Z,550.00
2023-03-23T04:17:52.644Z,548.00
2023-03-23T04:21:52.621Z,550.00
2023-03-23T04:25:52.606Z,552.00
2023-03-23T04:29:52.587Z,551.00
2023-03-23T04:34:00.516Z,552.00
2023-03-23T04:37:53.469Z,553.00
2023-03-23T04:41:52.462Z,555.00
2023-03-23T04:45:52.400Z,549.00
2023-03-23T04:49:52.373Z,552.00
2023-03-23T04:53:52.381Z,550.00
2023-03-23T04:57:52.315Z,546.00
2023-03-23T05:01:52.272Z,542.00
2023-03-23T05:05:53.235Z,543.00
2023-03-23T05:09:52.196Z,543.00
2023-03-23T05:13:52.484Z,543.00
2023-03-23T05:17:52.134Z,549.00
2023-03-23T05:21:52.506Z,547.00
2023-03-23T05:25:52.487Z,549.00
2023-03-23T05:29:52.500Z,550.00
2023-03-23T05:33:51.996Z,552.00
2023-03-23T05:37:51.963Z,552.00
2023-03-23T05:41:52.013Z,549.00
2023-03-23T05:45:51.883Z,551.00
2023-03-23T05:49:51.829Z,548.00
2023-03-23T05:53:51.795Z,554.00
2023-03-23T05:57:52.014Z,552.00
2023-03-23T06:01:51.761Z,549.00
2023-03-23T06:05:51.815Z,547.00
2023-03-23T06:09:52.017Z,545.00
2023-03-23T06:13:51.930Z,544.00
2023-03-23T06:17:51.887Z,552.00
2023-03-23T06:21:51.864Z,550.00
2023-03-23T06:25:51.828Z,551.00
2023-03-23T06:29:52.798Z,568.00
2023-03-23T06:33:51.812Z,698.00
2023-03-23T06:37:52.017Z,745.00
2023-03-23T06:41:51.724Z,834.00
2023-03-23T06:45:52.035Z,827.00
2023-03-23T06:49:51.643Z,847.00
2023-03-23T06:53:51.608Z,896.00
2023-03-23T06:57:51.558Z,902.00
2023-03-23T07:01:51.565Z,946.00
2023-03-23T07:05:51.538Z,979.00
2023-03-23T07:09:51.461Z,885.00
2023-03-23T07:13:51.431Z,950.00
2023-03-23T07:17:51.545Z,940.00
2023-03-23T07:21:51.534Z,984.00
2023-03-23T07:25:51.517Z,980.00
2023-03-23T07:29:52.556Z,975.00
2023-03-23T07:33:51.802Z,983.00
2023-03-23T07:37:52.078Z,989.00
2023-03-23T07:41:52.878Z,1042.00
2023-03-23T07:45:51.852Z,963.00
2023-03-23T07:49:51.814Z,1015.00
2023-03-23T07:53:51.765Z,1001.00
2023-03-23T07:57:51.732Z,1010.00
2023-03-23T08:01:51.735Z,992.00
2023-03-23T08:05:51.679Z,1010.00
2023-03-23T08:09:51.663Z,974.00
2023-03-23T08:13:51.729Z,991.00
2023-03-23T08:17:51.761Z,1004.00
2023-03-23T08:21:52.075Z,1003.00
2023-03-23T08:25:52.003Z,996.00
2023-03-23T08:29:52.073Z,966.00
2023-03-23T08:33:52.057Z,1053.00
2023-03-23T08:37:52.047Z,812.00
2023-03-23T08:41:52.083Z,771.00
2023-03-23T08:45:52.204Z,733.00
2023-03-23T08:49:52.356Z,714.00
2023-03-23T08:53:52.608Z,695.00
2023-03-23T08:57:52.580Z,664.00
2023-03-23T09:01:52.529Z,654.00
2023-03-23T09:05:52.501Z,654.00
2023-03-23T09:09:52.490Z,664.00
2023-03-23T09:13:52.406Z,690.00
2023-03-23T09:17:52.367Z,674.00
2023-03-23T09:21:52.588Z,748.00
2023-03-23T09:25:52.302Z,815.00
2023-03-23T09:29:52.283Z,823.00
2023-03-23T09:33:52.605Z,793.00
2023-03-23T09:37:52.595Z,757.00
2023-03-23T09:41:52.312Z,830.00
2023-03-23T09:45:52.553Z,781.00
2023-03-23T09:49:53.110Z,761.00
2023-03-23T09:53:53.089Z,723.00
2023-03-23T09:57:53.635Z,802.00
2023-03-23T10:01:52.895Z,791.00
2023-03-23T10:05:53.006Z,789.00
2023-03-23T10:09:52.945Z,806.00
2023-03-23T10:13:53.108Z,793.00
2023-03-23T10:17:53.044Z,687.00
2023-03-23T10:21:53.107Z,676.00
2023-03-23T10:25:52.960Z,831.00
2023-03-23T10:29:53.015Z,834.00
2023-03-23T10:33:53.111Z,842.00
2023-03-23T10:37:53.082Z,908.00
2023-03-23T10:41:53.109Z,890.00
2023-03-23T10:46:00.598Z,753.00
2023-03-23T10:49:54.128Z,721.00
2023-03-23T10:53:53.168Z,705.00
2023-03-23T10:57:53.286Z,680.00
2023-03-23T11:01:53.470Z,746.00
2023-03-23T11:05:53.629Z,744.00
2023-03-23T11:09:53.669Z,749.00
2023-03-23T11:13:53.806Z,738.00
2023-03-23T11:17:54.043Z,733.00
2023-03-23T11:21:53.963Z,827.00
2023-03-23T11:25:53.950Z,829.00
2023-03-23T11:29:58.439Z,762.00
2023-03-23T11:34:05.573Z,774.00
2023-03-23T11:37:55.134Z,751.00
2023-03-23T11:42:06.887Z,743.00
2023-03-23T11:45:54.765Z,742.00
2023-03-23T11:49:53.755Z,727.00
2023-03-23T11:53:54.161Z,715.00
2023-03-23T11:57:54.136Z,715.00
2023-03-23T12:01:54.173Z,697.00
2023-03-23T12:05:54.193Z,674.00
2023-03-23T12:09:54.683Z,647.00
2023-03-23T12:13:56.828Z,641.00
2023-03-23T12:17:54.646Z,646.00
2023-03-23T12:21:54.665Z,661.00
2023-03-23T12:25:54.189Z,663.00
2023-03-23T12:29:54.155Z,651.00
2023-03-23T12:33:54.110Z,642.00
2023-03-23T12:37:54.083Z,624.00
2023-03-23T12:41:54.033Z,623.00
2023-03-23T12:45:54.019Z,615.00
2023-03-23T12:49:54.067Z,612.00
2023-03-23T12:53:54.145Z,608.00
2023-03-23T12:57:54.182Z,605.00
2023-03-23T13:01:54.281Z,602.00
2023-03-23T13:05:54.679Z,609.00
2023-03-23T13:09:54.441Z,604.00
2023-03-23T13:13:55.237Z,598.00
2023-03-23T13:17:54.625Z,596.00
2023-03-23T13:21:54.783Z,596.00
2023-03-23T13:25:54.847Z,589.00
2023-03-23T13:29:54.960Z,591.00
2023-03-23T13:33:55.076Z,592.00
2023-03-23T13:37:55.169Z,588.00
2023-03-23T13:41:55.299Z,583.00
2023-03-23T13:45:55.393Z,580.00
2023-03-23T13:49:55.522Z,577.00
2023-03-23T13:53:55.650Z,579.00
2023-03-23T13:57:56.215Z,579.00
2023-03-23T14:01:56.220Z,578.00
2023-03-23T14:05:56.021Z,576.00
2023-03-23T14:09:56.218Z,579.00
2023-03-23T14:13:56.284Z,576.00
2023-03-23T14:17:56.412Z,573.00
2023-03-23T14:21:56.622Z,571.00
2023-03-23T14:25:56.687Z,566.00
2023-03-23T14:29:56.840Z,568.00
2023-03-23T14:33:56.935Z,563.00
2023-03-23T14:37:57.217Z,560.00
2023-03-23T14:41:57.259Z,564.00
2023-03-23T14:45:57.381Z,559.00
2023-03-23T14:49:57.731Z,557.00
2023-03-23T14:53:57.726Z,556.00
2023-03-23T14:57:58.236Z,555.00
2023-03-23T15:01:57.894Z,554.00
2023-03-23T15:05:58.005Z,551.00
2023-03-23T15:09:58.136Z,553.00
2023-03-23T15:13:58.305Z,545.00
2023-03-23T15:17:58.474Z,542.00
2023-03-23T15:21:58.632Z,548.00
2023-03-23T15:25:58.829Z,552.00
2023-03-23T15:29:59.008Z,548.00
2023-03-23T15:33:59.130Z,547.00
2023-03-23T15:37:59.317Z,540.00
2023-03-23T15:41:59.285Z,537.00
2023-03-23T15:45:59.268Z,543.00
2023-03-23T15:49:59.202Z,544.00
2023-03-23T15:54:02.867Z,545.00
2023-03-23T15:58:00.206Z,548.00
2023-03-23T16:01:59.125Z,551.00
2023-03-23T16:05:59.122Z,545.00
2023-03-23T16:09:59.364Z,543.00
2023-03-23T16:13:59.576Z,547.00
2023-03-23T16:17:59.836Z,547.00
2023-03-23T16:22:00.003Z,542.00
2023-03-23T16:26:00.274Z,536.00
2023-03-23T16:30:04.276Z,539.00
2023-03-23T16:34:00.144Z,542.00
2023-03-23T16:38:08.267Z,539.00
2023-03-23T16:42:01.391Z,531.00
2023-03-23T16:46:00.078Z,527.00
2023-03-23T16:50:00.230Z,529.00
2023-03-23T16:54:00.196Z,528.00
2023-03-23T16:58:09.364Z,528.00
2023-03-23T17:02:01.311Z,524.00
2023-03-23T17:06:00.112Z,524.00
2023-03-23T17:10:00.045Z,523.00
2023-03-23T17:13:59.999Z,526.00
2023-03-23T17:18:00.139Z,523.00
2023-03-23T17:21:59.947Z,525.00
2023-03-23T17:25:59.943Z,530.00
2023-03-23T17:29:59.876Z,527.00
2023-03-23T17:33:59.843Z,527.00
2023-03-23T17:37:59.813Z,527.00
2023-03-23T17:41:59.784Z,523.00
2023-03-23T17:45:59.965Z,519.00
2023-03-23T17:49:59.911Z,523.00
2023-03-23T17:53:59.854Z,527.00
2023-03-23T17:57:59.817Z,532.00
2023-03-23T18:01:59.815Z,531.00
2023-03-23T18:05:59.735Z,524.00
2023-03-23T18:09:59.807Z,527.00
2023-03-23T18:13:59.685Z,528.00
2023-03-23T18:17:59.691Z,526.00
2023-03-23T18:21:59.652Z,526.00
2023-03-23T18:25:59.557Z,528.00
2023-03-23T18:29:59.523Z,530.00
2023-03-23T18:33:59.592Z,524.00
2023-03-23T18:37:59.716Z,518.00
2023-03-23T18:41:59.831Z,516.00
2023-03-23T18:46:00.103Z,520.00
2023-03-23T18:50:00.077Z,520.00
2023-03-23T18:54:00.044Z,517.00
2023-03-23T18:58:00.133Z,519.00
2023-03-23T19:02:00.138Z,519.00
2023-03-23T19:06:00.114Z,522.00
2023-03-23T19:10:00.051Z,527.00
2023-03-23T19:14:02.990Z,523.00
2023-03-23T19:18:00.003Z,520.00
2023-03-23T19:22:00.190Z,521.00
2023-03-23T19:26:00.151Z,518.00
2023-03-23T19:29:59.881Z,518.00
2023-03-23T19:33:59.868Z,518.00
2023-03-23T19:37:59.799Z,525.00
2023-03-23T19:41:59.764Z,527.00
2023-03-23T19:46:00.229Z,527.00
2023-03-23T19:49:59.729Z,530.00
2023-03-23T19:53:59.672Z,531.00
2023-03-23T19:58:00.375Z,534.00
2023-03-23T20:01:59.635Z,535.00
2023-03-23T20:05:59.545Z,537.00
2023-03-23T20:09:59.516Z,533.00
2023-03-23T20:13:59.495Z,531.00
2023-03-23T20:17:59.495Z,531.00
2023-03-23T20:21:59.451Z,532.00
2023-03-23T20:25:59.787Z,534.00
2023-03-23T20:29:59.341Z,529.00
2023-03-23T20:34:00.553Z,530.00
2023-03-23T20:37:59.309Z,529.00
2023-03-23T20:41:59.230Z,528.00
2023-03-23T20:45:59.217Z,528.00
2023-03-23T20:49:59.174Z,529.00
2023-03-23T20:53:59.217Z,528.00
2023-03-23T20:57:59.272Z,523.00
2023-03-23T21:01:59.250Z,526.00
2023-03-23T21:05:59.265Z,530.00
2023-03-23T21:09:59.332Z,533.00
2023-03-23T21:13:59.361Z,532.00
2023-03-23T21:17:59.450Z,528.00
2023-03-23T21:21:59.397Z,526.00
2023-03-23T21:25:59.391Z,531.00
2023-03-23T21:29:59.477Z,530.00
2023-03-23T21:33:59.464Z,531.00
2023-03-23T21:37:59.495Z,531.00
2023-03-23T21:41:59.723Z,536.00
2023-03-23T21:45:59.560Z,531.00
2023-03-23T21:49:59.581Z,527.00
2023-03-23T21:53:59.629Z,529.00
2023-03-23T21:57:59.622Z,537.00
2023-03-23T22:01:59.743Z,531.00
2023-03-23T22:05:59.696Z,531.00
2023-03-23T22:09:59.727Z,532.00
2023-03-23T22:13:59.741Z,528.00
2023-03-23T22:17:59.830Z,530.00
2023-03-23T22:21:59.780Z,535.00
2023-03-23T22:25:59.819Z,533.00
2023-03-23T22:29:59.841Z,531.00
2023-03-23T22:33:59.876Z,531.00
2023-03-23T22:37:59.923Z,527.00
2023-03-23T22:41:59.963Z,529.00
2023-03-23T22:46:00.000Z,537.00
2023-03-23T22:50:00.053Z,536.00
2023-03-23T22:54:00.094Z,540.00
2023-03-23T22:58:00.102Z,534.00
2023-03-23T23:02:00.135Z,536.00
2023-03-23T23:06:00.158Z,529.00
2023-03-23T23:10:00.212Z,527.00
2023-03-23T23:14:00.223Z,528.00
2023-03-23T23:18:00.368Z,531.00
2023-03-23T23:22:12.613Z,529.00
2023-03-23T23:26:01.270Z,531.00
2023-03-23T23:30:00.245Z,531.00
2023-03-23T23:34:00.239Z,528.00
2023-03-23T23:38:00.195Z,533.00
2023-03-23T23:42:00.141Z,532.00
2023-03-23T23:46:00.177Z,530.00
2023-03-23T23:50:00.126Z,531.00
2023-03-23T23:54:00.037Z,532.00
2023-03-23T23:58:00.089Z,528.00
